Time;durP1;ratioP1;P1;durP2;ratioP2;P2;SDS_P1;SDS_P2;PMS_P1;PMS_P2;Temp;Humidity;BMP_temperature;BMP_pressure;BME280_temperature;BME280_humidity;BME280_pressure;Samples;Min_cycle;Max_cycle;Signal;HPM_P1;HPM_P2
2023/04/26 00:01:08;;;;;;;8.02;3.80;;;11.40;99.90;;;10.57;100.00;101104.53;4125079;28;20431;-77
2023/04/26 00:03:09;;;;;;;6.43;3.33;;;11.30;99.90;;;10.53;100.00;101113.72;4131290;28;20023;-77
2023/04/26 00:05:10;;;;;;;8.23;3.40;;;11.30;99.90;;;10.47;100.00;101107.22;4138527;28;20565;-77
2023/04/26 00:07:12;;;;;;;5.70;3.53;;;11.20;99.90;;;10.47;100.00;101109.88;4138573;28;20387;-77
2023/04/26 00:09:13;;;;;;;6.75;4.20;;;11.20;99.90;;;10.40;100.00;101108.78;4138364;28;20030;-77
2023/04/26 00:11:14;;;;;;;6.88;3.53;;;11.20;99.90;;;10.36;100.00;101104.75;4137443;28;20034;-77
2023/04/26 00:13:15;;;;;;;6.53;3.55;;;11.20;99.90;;;10.35;100.00;101110.19;4133166;28;20023;-77
2023/04/26 00:15:17;;;;;;;7.63;4.05;;;11.10;99.90;;;10.34;100.00;101111.16;4138082;28;20037;-77
2023/04/26 00:17:18;;;;;;;10.70;3.95;;;11.10;99.90;;;10.32;100.00;101106.03;4137277;28;20030;-77
2023/04/26 00:19:20;;;;;;;8.57;4.43;;;11.10;99.90;;;10.28;100.00;101101.19;4130853;28;20019;-77
2023/04/26 00:21:21;;;;;;;6.35;3.88;;;11.00;99.90;;;10.26;100.00;101089.97;4138505;28;20129;-77
2023/04/26 00:23:22;;;;;;;9.20;4.13;;;11.00;99.90;;;10.24;100.00;101094.56;4136791;28;20019;-77
2023/04/26 00:25:22;;;;;;;8.35;4.45;;;11.00;99.90;;;10.22;100.00;101093.88;4126236;28;20547;-77
2023/04/26 00:27:23;;;;;;;8.25;4.40;;;11.00;99.90;;;10.22;100.00;101093.88;4137034;28;20096;-77
2023/04/26 00:29:24;;;;;;;8.38;4.43;;;10.90;99.90;;;10.21;100.00;101094.84;4132464;28;20081;-77
2023/04/26 00:31:25;;;;;;;7.93;4.00;;;10.90;99.90;;;10.19;100.00;101096.78;4135261;28;20023;-77
2023/04/26 00:33:26;;;;;;;7.93;4.15;;;10.90;99.90;;;10.16;100.00;101087.38;4153274;28;20038;-77
2023/04/26 00:35:27;;;;;;;9.13;5.20;;;10.90;99.90;;;10.22;100.00;101093.88;4136795;28;20030;-77
2023/04/26 00:37:28;;;;;;;7.78;4.82;;;10.90;99.90;;;10.16;100.00;101099.72;4153009;28;20026;-77
2023/04/26 00:39:29;;;;;;;5.65;3.78;;;10.90;99.90;;;10.15;100.00;101095.44;4136525;28;20442;-77
2023/04/26 00:41:30;;;;;;;9.55;4.50;;;10.90;99.90;;;10.16;100.00;101097.91;4138054;28;20034;-77
2023/04/26 00:43:31;;;;;;;6.40;4.65;;;10.90;99.90;;;10.12;100.00;101106.25;4130583;28;20403;-77
2023/04/26 00:45:33;;;;;;;12.70;4.63;;;10.90;99.90;;;10.10;100.00;101100.25;4121964;28;20126;-77
2023/04/26 00:47:35;;;;;;;10.50;4.50;;;10.90;99.90;;;10.03;100.00;101098.19;4122590;28;20621;-77
2023/04/26 00:49:36;;;;;;;8.43;3.95;;;10.80;99.90;;;10.07;100.00;101090.00;4136784;28;20034;-77
2023/04/26 00:51:37;;;;;;;5.72;3.97;;;10.80;99.90;;;10.06;100.00;101093.63;4127764;28;20065;-77
2023/04/26 00:53:38;;;;;;;7.90;3.92;;;10.80;99.90;;;10.11;100.00;101096.66;4136294;28;20121;-77
2023/04/26 00:55:41;;;;;;;6.88;4.22;;;10.80;99.90;;;10.05;100.00;101086.69;4136576;28;20042;-77
2023/04/26 00:57:45;;;;;;;8.00;4.13;;;10.80;99.90;;;10.08;100.00;101100.41;4136754;28;20175;-77
2023/04/26 00:59:45;;;;;;;6.10;4.47;;;10.80;99.90;;;10.04;100.00;101085.84;4136409;28;20536;-77
2023/04/26 01:01:47;;;;;;;8.23;4.13;;;10.80;99.90;;;10.08;100.00;101081.97;4131066;28;20030;-77
2023/04/26 01:03:48;;;;;;;8.82;4.13;;;10.80;99.90;;;10.07;100.00;101084.72;4136275;28;20402;-77
2023/04/26 01:05:50;;;;;;;8.98;5.15;;;10.80;99.90;;;9.97;100.00;101059.25;4124586;28;20034;-76
2023/04/26 01:07:51;;;;;;;6.78;4.03;;;10.80;99.90;;;10.05;100.00;101076.97;4152701;28;20037;-77
2023/04/26 01:09:53;;;;;;;5.38;4.05;;;10.80;99.90;;;10.02;100.00;101074.63;4152369;28;20092;-77
2023/04/26 01:11:56;;;;;;;10.52;4.80;;;10.80;99.90;;;10.04;100.00;101072.69;4136302;28;20029;-77
2023/04/26 01:13:58;;;;;;;5.82;3.67;;;10.80;99.90;;;10.07;100.00;101077.66;4136203;28;20085;-76
2023/04/26 01:16:00;;;;;;;8.90;4.30;;;10.80;99.90;;;10.03;100.00;101063.94;4136359;28;20038;-77
2023/04/26 01:18:01;;;;;;;7.45;3.90;;;10.80;99.90;;;10.06;100.00;101067.28;4152456;28;20022;-77
2023/04/26 01:20:04;;;;;;;7.20;3.85;;;10.80;99.90;;;10.08;100.00;101070.59;4136069;28;20389;-77
2023/04/26 01:22:05;;;;;;;6.35;3.70;;;10.80;99.90;;;10.05;100.00;101065.59;4125861;28;20026;-77
2023/04/26 01:24:08;;;;;;;6.13;4.55;;;10.80;99.90;;;10.08;100.00;101070.59;4136103;28;20038;-77
2023/04/26 01:26:09;;;;;;;6.35;4.10;;;10.80;99.90;;;10.08;100.00;101067.94;4131262;28;20485;-76
2023/04/26 01:28:10;;;;;;;7.85;4.57;;;10.80;99.90;;;10.06;100.00;101062.00;4137399;28;20030;-77
2023/04/26 01:30:11;;;;;;;7.40;4.30;;;10.80;99.90;;;10.04;100.00;101062.13;4137391;28;20084;-77
2023/04/26 01:32:12;;;;;;;9.10;4.65;;;10.80;99.90;;;10.00;100.00;101064.22;4137297;28;20031;-77
2023/04/26 01:34:14;;;;;;;8.15;5.45;;;10.80;99.90;;;9.96;100.00;101062.03;4137185;28;20026;-77
2023/04/26 01:36:15;;;;;;;7.32;4.30;;;10.70;99.90;;;9.98;100.00;101065.34;4135654;28;20113;-77
2023/04/26 01:38:16;;;;;;;11.15;4.22;;;10.70;99.90;;;9.97;100.00;101058.44;4123544;28;20540;-77
2023/04/26 01:40:17;;;;;;;7.53;4.03;;;10.80;99.90;;;9.90;100.00;101038.91;4137134;28;20027;-77
2023/04/26 01:42:18;;;;;;;7.13;4.50;;;10.70;99.90;;;9.96;100.00;101046.22;4135726;28;20494;-77
2023/04/26 01:44:19;;;;;;;9.13;4.47;;;10.70;99.90;;;9.95;100.00;101050.66;4138391;28;20034;-77
2023/04/26 01:46:21;;;;;;;9.32;4.28;;;10.70;99.90;;;9.95;100.00;101039.28;4121052;28;20513;-77
2023/04/26 01:48:22;;;;;;;7.97;4.80;;;10.70;99.90;;;9.92;100.00;101040.41;4126451;28;20030;-77
2023/04/26 01:50:23;;;;;;;9.70;4.45;;;10.70;99.90;;;9.90;100.00;101029.19;4129703;28;20097;-77
2023/04/26 01:52:23;;;;;;;6.65;4.43;;;10.70;99.90;;;9.93;100.00;101036.81;4135884;28;20026;-77
2023/04/26 01:54:24;;;;;;;6.80;4.00;;;10.70;99.90;;;9.94;100.00;101035.84;4136705;28;20030;-77
2023/04/26 01:56:25;;;;;;;5.93;3.80;;;10.70;99.90;;;9.92;100.00;101023.75;4135815;28;20053;-76
2023/04/26 01:58:26;;;;;;;7.63;4.03;;;10.70;99.90;;;9.93;100.00;101017.53;4129132;28;20030;-77
2023/04/26 02:00:31;;;;;;;7.80;4.57;;;10.70;99.90;;;9.93;100.00;101017.53;4132256;28;20383;-77
2023/04/26 02:02:32;;;;;;;9.18;4.07;;;10.70;99.90;;;9.95;100.00;101024.31;4151895;28;20033;-76
2023/04/26 02:04:33;;;;;;;7.40;4.30;;;10.70;99.90;;;9.96;100.00;101028.59;4135479;28;20471;-76
2023/04/26 02:06:34;;;;;;;8.20;4.60;;;10.70;99.90;;;9.91;100.00;101014.22;4136637;28;20053;-76
2023/04/26 02:08:35;;;;;;;8.40;4.40;;;10.70;99.90;;;9.92;100.00;101015.84;4135237;28;20177;-77
2023/04/26 02:10:36;;;;;;;7.00;3.88;;;10.70;99.90;;;9.91;100.00;101006.31;4135415;28;20034;-77
2023/04/26 02:12:37;;;;;;;5.63;3.70;;;10.70;99.90;;;9.95;100.00;101008.50;4145447;28;20030;-77
2023/04/26 02:14:38;;;;;;;7.68;4.40;;;10.70;99.90;;;9.93;100.00;101010.44;4135238;28;20488;-76
2023/04/26 02:16:39;;;;;;;8.90;4.43;;;10.70;99.90;;;9.88;100.00;101010.06;4136517;28;20035;-76
2023/04/26 02:18:40;;;;;;;5.80;3.83;;;10.70;99.90;;;9.93;100.00;101012.25;4135581;28;20029;-77
2023/04/26 02:20:42;;;;;;;9.23;4.43;;;10.70;99.90;;;9.95;100.00;101013.75;4126439;28;20098;-77
2023/04/26 02:22:43;;;;;;;8.30;4.10;;;10.70;99.90;;;9.97;100.00;101013.63;4136431;28;20028;-76
2023/04/26 02:24:43;;;;;;;7.07;4.65;;;10.70;99.90;;;9.96;100.00;101002.25;4136382;28;20026;-77
2023/04/26 02:26:45;;;;;;;10.85;4.28;;;10.70;99.90;;;9.92;100.00;100992.97;4136441;28;20030;-76
2023/04/26 02:28:45;;;;;;;5.20;3.72;;;10.70;99.90;;;9.97;100.00;101001.25;4136403;28;20038;-76
2023/04/26 02:30:46;;;;;;;6.22;4.25;;;10.70;99.90;;;9.96;100.00;100997.00;4136337;28;20030;-76
2023/04/26 02:32:47;;;;;;;6.50;4.75;;;10.70;99.90;;;9.98;100.00;100995.03;4136303;28;20033;-77
2023/04/26 02:34:48;;;;;;;6.47;4.80;;;10.70;99.90;;;9.98;100.00;100999.47;4134958;28;20023;-76
2023/04/26 02:36:49;;;;;;;8.30;4.45;;;10.70;99.90;;;9.94;100.00;100991.03;4135051;28;20026;-76
2023/04/26 02:38:50;;;;;;;7.75;4.30;;;10.70;99.90;;;9.99;100.00;100998.50;4151001;28;20133;-77
2023/04/26 02:41:01;;;;;;;7.07;4.18;;;10.80;99.90;;;10.00;100.00;100992.25;4135006;28;20026;-76
2023/04/26 02:43:02;;;;;;;6.90;4.40;;;10.80;99.90;;;9.98;100.00;101000.28;4118634;28;20042;-76
2023/04/26 02:45:03;;;;;;;7.28;3.70;;;10.80;99.90;;;9.96;100.00;100994.34;4136280;28;20537;-76
2023/04/26 02:47:04;;;;;;;5.95;3.42;;;10.70;99.90;;;9.94;100.00;100990.22;4135025;28;20057;-76
2023/04/26 02:49:05;;;;;;;6.28;3.80;;;10.70;99.90;;;9.95;100.00;100991.84;4130700;28;20038;-77
2023/04/26 02:51:06;;;;;;;8.57;4.45;;;10.70;99.90;;;9.95;100.00;100991.84;4135150;28;20434;-76
2023/04/26 02:53:07;;;;;;;9.00;4.45;;;10.70;99.90;;;9.87;100.00;100983.84;4134760;28;20034;-76
2023/04/26 02:55:08;;;;;;;8.02;4.10;;;10.70;99.90;;;9.90;100.00;100989.66;4135962;28;20033;-76
2023/04/26 02:57:09;;;;;;;7.13;4.18;;;10.70;99.90;;;9.94;100.00;100993.69;4134415;28;20022;-76
2023/04/26 02:59:10;;;;;;;9.07;4.68;;;10.70;99.90;;;9.91;100.00;100986.06;4134773;28;20027;-76
2023/04/26 03:01:12;;;;;;;6.38;4.25;;;10.70;99.90;;;9.87;100.00;100973.31;4122588;28;20098;-76
2023/04/26 03:03:14;;;;;;;6.45;4.40;;;10.70;99.90;;;9.88;100.00;100978.44;4134802;28;20020;-76
2023/04/26 03:05:15;;;;;;;7.97;4.20;;;10.70;99.90;;;9.92;100.00;100987.69;4130314;28;20466;-76
2023/04/26 03:07:16;;;;;;;8.15;4.20;;;10.70;99.90;;;9.91;100.00;100978.16;4134516;28;20030;-76
2023/04/26 03:09:16;;;;;;;11.35;4.60;;;10.70;99.90;;;9.92;100.00;100992.97;4134681;28;20034;-76
2023/04/26 03:11:17;;;;;;;7.65;4.43;;;10.70;99.90;;;9.90;100.00;100989.66;4121540;28;20022;-76
2023/04/26 03:13:18;;;;;;;12.45;5.30;;;10.70;99.90;;;9.87;100.00;100995.22;4129782;28;20030;-76
2023/04/26 03:15:19;;;;;;;9.32;4.40;;;10.70;99.90;;;9.88;100.00;100985.53;4116773;28;20023;-76
2023/04/26 03:17:20;;;;;;;8.98;4.82;;;10.60;99.90;;;9.87;100.00;100983.84;4134857;28;20042;-77
2023/04/26 03:19:21;;;;;;;9.43;4.30;;;10.60;99.90;;;9.85;100.00;100977.91;4135949;28;20018;-76
2023/04/26 03:21:22;;;;;;;8.82;4.97;;;10.60;99.90;;;9.90;100.00;100983.56;4134714;28;20058;-76
2023/04/26 03:23:24;;;;;;;9.93;4.63;;;10.60;99.90;;;9.90;100.00;100987.03;4121841;28;20039;-76
2023/04/26 03:25:25;;;;;;;7.40;4.80;;;10.70;99.90;;;9.90;100.00;100978.28;4120181;28;20027;-76
2023/04/26 03:27:25;;;;;;;10.52;4.90;;;10.70;99.90;;;9.95;100.00;100981.31;4126075;28;20525;-76
2023/04/26 03:29:26;;;;;;;6.20;4.50;;;10.70;99.90;;;9.93;100.00;100976.19;4130273;28;20431;-76
2023/04/26 03:31:27;;;;;;;6.75;4.38;;;10.70;99.90;;;9.93;100.00;100975.38;4133959;28;20402;-76
2023/04/26 03:33:30;;;;;;;10.18;5.28;;;10.70;99.90;;;9.89;100.00;100972.19;4119836;28;20038;-76
2023/04/26 03:35:30;;;;;;;7.13;4.82;;;10.70;99.90;;;9.91;100.00;100970.25;4126293;28;20038;-77
2023/04/26 03:37:31;;;;;;;8.93;5.13;;;10.70;99.90;;;9.91;100.00;100967.63;4134718;28;20033;-76
2023/04/26 03:39:32;;;;;;;6.30;4.20;;;10.70;99.90;;;9.90;100.00;100967.75;4133348;28;20026;-76
2023/04/26 03:41:35;;;;;;;7.65;4.60;;;10.70;99.90;;;9.92;100.00;100957.88;4131649;28;20066;-76
2023/04/26 03:43:36;;;;;;;8.93;5.00;;;10.70;99.90;;;9.89;100.00;100959.00;4135726;28;20023;-76
2023/04/26 03:45:37;;;;;;;6.55;4.68;;;10.70;99.90;;;9.90;100.00;100959.84;4135512;28;20112;-76
2023/04/26 03:47:38;;;;;;;6.38;4.10;;;10.70;99.90;;;9.81;100.00;100942.28;4134475;28;20027;-76
2023/04/26 03:49:39;;;;;;;8.68;4.97;;;10.70;99.90;;;9.93;100.00;100957.75;4122990;28;20030;-76
2023/04/26 03:51:40;;;;;;;8.05;4.45;;;10.70;99.90;;;9.96;100.00;100959.25;4127824;28;20030;-76
2023/04/26 03:53:41;;;;;;;8.20;5.25;;;10.70;99.90;;;9.94;100.00;100962.06;4135544;28;20032;-76
2023/04/26 03:55:43;;;;;;;7.88;4.57;;;10.70;99.90;;;9.97;100.00;100966.19;4135556;28;20073;-76
2023/04/26 03:57:43;;;;;;;7.18;4.53;;;10.70;99.90;;;9.98;100.00;100968.66;4135705;28;20022;-76
2023/04/26 03:59:44;;;;;;;6.18;4.32;;;10.70;99.90;;;9.98;100.00;100968.66;4136878;28;20022;-76
2023/04/26 04:01:45;;;;;;;6.22;4.15;;;10.70;99.90;;;9.95;100.00;100963.69;4137278;28;20058;-76
2023/04/26 04:03:46;;;;;;;7.05;5.50;;;10.70;99.90;;;9.98;100.00;100966.03;4135286;28;20106;-76
2023/04/26 04:05:47;;;;;;;7.03;4.72;;;10.70;99.90;;;9.99;100.00;100966.88;4137485;28;20031;-76
2023/04/26 04:07:48;;;;;;;8.85;4.72;;;10.70;99.90;;;9.97;100.00;100967.00;4128572;28;20033;-76
2023/04/26 04:09:48;;;;;;;7.10;5.10;;;10.70;99.90;;;10.00;100.00;100971.97;4120914;28;20023;-76
2023/04/26 04:11:50;;;;;;;5.90;4.68;;;10.70;99.90;;;9.97;100.00;100969.63;4137541;28;20057;-76
2023/04/26 04:13:51;;;;;;;8.57;5.32;;;10.70;99.90;;;9.99;100.00;100972.16;4128236;28;20022;-76
2023/04/26 04:15:52;;;;;;;7.63;4.93;;;10.70;99.90;;;10.00;100.00;100973.81;4138389;28;20106;-76
2023/04/26 04:17:53;;;;;;;7.15;4.57;;;10.70;99.90;;;10.00;100.00;100969.34;4137213;28;20026;-76
2023/04/26 04:19:53;;;;;;;6.80;4.97;;;10.70;99.90;;;9.97;100.00;100963.56;4135679;28;20034;-76
2023/04/26 04:21:55;;;;;;;7.93;5.35;;;10.70;99.90;;;10.05;100.00;100970.72;4134444;28;20030;-76
2023/04/26 04:23:55;;;;;;;8.32;4.65;;;10.70;99.90;;;9.96;100.00;100957.47;4122044;28;20114;-76
2023/04/26 04:25:57;;;;;;;6.95;4.55;;;10.80;99.90;;;10.02;100.00;100961.31;4130961;28;20030;-76
2023/04/26 04:27:58;;;;;;;11.63;5.78;;;10.80;99.90;;;10.02;100.00;100956.88;4135474;28;20030;-76
2023/04/26 04:30:02;;;;;;;10.95;6.07;;;10.80;99.90;;;10.00;100.00;100953.53;4137131;28;20027;-76
2023/04/26 04:32:04;;;;;;;8.60;5.53;;;10.80;99.90;;;9.91;100.00;100943.06;4135288;28;20031;-76
2023/04/26 04:34:04;;;;;;;8.35;5.45;;;10.70;99.90;;;10.05;100.00;100961.00;4138091;28;20062;-76
2023/04/26 04:36:07;;;;;;;8.05;6.55;;;10.80;99.90;;;10.02;100.00;100970.03;4137959;28;20034;-76
2023/04/26 04:38:08;;;;;;;10.63;6.32;;;10.80;99.90;;;10.03;100.00;100961.16;4136807;28;20421;-76
2023/04/26 04:40:09;;;;;;;9.43;5.72;;;10.70;99.90;;;10.06;100.00;100965.31;4136930;28;20058;-76
2023/04/26 04:42:11;;;;;;;8.45;4.97;;;10.80;99.90;;;10.05;100.00;100960.19;4132407;28;20042;-76
2023/04/26 04:44:12;;;;;;;6.10;5.18;;;10.80;99.90;;;10.04;100.00;100964.63;4137814;28;20049;-76
2023/04/26 04:46:13;;;;;;;5.45;4.85;;;10.80;99.90;;;10.01;100.00;100965.75;4137860;28;20030;-76
2023/04/26 04:48:17;;;;;;;8.23;5.20;;;10.80;99.90;;;10.01;100.00;100957.84;4136759;28;20043;-76
2023/04/26 04:50:18;;;;;;;7.65;4.63;;;10.80;99.90;;;9.96;100.00;100956.63;4152841;28;20037;-76
2023/04/26 04:52:21;;;;;;;6.22;5.20;;;10.80;99.90;;;10.03;100.00;100968.25;4136665;28;20379;-76
2023/04/26 04:54:22;;;;;;;7.97;5.47;;;10.80;99.90;;;9.98;100.00;100971.31;4136675;28;20091;-76
2023/04/26 04:56:24;;;;;;;7.05;5.00;;;10.80;99.90;;;10.03;100.00;100974.31;4152918;28;20030;-76
2023/04/26 04:58:25;;;;;;;7.32;5.03;;;10.70;99.90;;;10.01;100.00;100978.09;4137758;28;20025;-76
2023/04/26 05:00:26;;;;;;;10.02;5.90;;;10.80;99.90;;;10.05;100.00;100987.38;4136500;28;20030;-76
2023/04/26 05:02:27;;;;;;;8.50;6.20;;;10.80;99.90;;;10.04;100.00;100977.78;4124908;28;20455;-76
2023/04/26 05:04:28;;;;;;;5.75;4.75;;;10.80;99.90;;;10.09;100.00;100988.75;4126035;28;20030;-76
2023/04/26 05:06:33;;;;;;;6.90;5.13;;;10.80;99.90;;;10.09;100.00;100987.91;4130297;28;20450;-76
2023/04/26 05:08:33;;;;;;;6.55;5.38;;;10.80;99.90;;;10.09;100.00;100982.63;4135757;28;20064;-76
2023/04/26 05:10:35;;;;;;;6.57;5.10;;;10.80;99.90;;;10.10;100.00;100981.66;4137337;28;20019;-76
2023/04/26 05:12:35;;;;;;;7.65;5.60;;;10.80;99.90;;;10.11;100.00;100985.94;4130819;28;20066;-76
2023/04/26 05:14:36;;;;;;;6.85;6.05;;;10.80;99.90;;;10.11;100.00;100983.31;4121395;28;20037;-77
2023/04/26 05:16:37;;;;;;;10.00;6.03;;;10.80;99.90;;;10.06;100.00;100975.88;4135497;28;20125;-76
2023/04/26 05:18:38;;;;;;;7.57;5.70;;;10.80;99.90;;;10.11;100.00;100985.94;4137072;28;20030;-76
2023/04/26 05:20:40;;;;;;;7.65;5.57;;;10.80;99.90;;;10.11;100.00;100988.59;4136265;28;20544;-76
2023/04/26 05:22:41;;;;;;;9.07;6.10;;;10.80;99.90;;;10.10;100.00;100981.66;4127286;28;20023;-76
2023/04/26 05:24:42;;;;;;;7.68;5.57;;;10.80;99.90;;;10.17;100.00;100993.31;4119899;28;20054;-76
2023/04/26 05:26:42;;;;;;;8.50;7.00;;;10.80;99.90;;;10.13;100.00;100990.13;4136255;28;20446;-77
2023/04/26 05:28:43;;;;;;;9.20;6.07;;;10.90;99.90;;;10.16;100.00;100986.34;4152213;28;20037;-76
2023/04/26 05:30:45;;;;;;;6.82;6.03;;;10.90;99.90;;;10.19;100.00;100993.97;4119912;28;20023;-76
2023/04/26 05:32:46;;;;;;;9.68;7.05;;;10.90;99.90;;;10.19;100.00;100997.44;4127029;28;20037;-76
2023/04/26 05:34:47;;;;;;;8.73;6.15;;;10.90;99.90;;;10.17;100.00;100995.94;4136924;28;20030;-76
2023/04/26 05:36:48;;;;;;;7.78;6.05;;;10.90;99.90;;;10.21;100.00;101000.78;4135010;28;20026;-76
2023/04/26 05:38:49;;;;;;;7.40;5.72;;;10.90;99.90;;;10.12;100.00;100987.63;4123426;28;20102;-76
2023/04/26 05:40:50;;;;;;;7.80;5.63;;;10.90;99.90;;;10.25;100.00;101001.28;4122168;28;20426;-76
2023/04/26 05:42:51;;;;;;;9.75;7.43;;;11.00;99.90;;;10.28;100.00;101003.63;4135228;28;20034;-74
2023/04/26 05:44:57;;;;;;;11.45;6.78;;;11.00;99.90;;;10.26;100.00;101001.16;4131074;28;20457;-74
2023/04/26 05:46:58;;;;;;;10.50;5.78;;;11.00;99.90;;;10.28;100.00;100993.09;4127670;28;20129;-75
2023/04/26 05:48:59;;;;;;;11.32;7.05;;;11.00;99.90;;;10.27;100.00;100983.53;4111272;28;20110;-74
2023/04/26 05:51:01;;;;;;;7.32;5.80;;;11.00;99.90;;;10.33;100.00;100993.50;4129975;28;20034;-75
2023/04/26 05:53:02;;;;;;;11.27;7.95;;;11.00;99.90;;;10.36;100.00;100998.47;4129070;28;20129;-74
2023/04/26 05:55:03;;;;;;;9.40;7.30;;;11.00;99.90;;;10.32;100.00;100997.09;4119294;28;20023;-74
2023/04/26 05:57:04;;;;;;;9.50;7.25;;;11.00;99.90;;;10.36;100.00;100998.47;4134374;28;20073;-72
2023/04/26 05:59:05;;;;;;;11.52;7.80;;;11.10;99.90;;;10.38;100.00;100993.88;4134543;28;20022;-73
2023/04/26 06:01:06;;;;;;;9.95;7.75;;;11.10;99.90;;;10.40;100.00;100995.38;4135092;28;20026;-73
2023/04/26 06:03:07;;;;;;;13.35;7.72;;;11.10;99.90;;;10.42;100.00;100995.25;4127733;28;20034;-73
2023/04/26 06:05:08;;;;;;;11.50;7.50;;;11.10;99.90;;;10.44;100.00;100994.13;4129926;28;20514;-72
2023/04/26 06:07:09;;;;;;;11.73;7.07;;;11.20;99.90;;;10.43;100.00;100991.63;4121352;28;20464;-72
2023/04/26 06:09:10;;;;;;;13.20;7.65;;;11.20;99.90;;;10.48;100.00;100995.44;4118594;28;20037;-73
2023/04/26 06:11:10;;;;;;;8.48;6.68;;;11.20;99.90;;;10.49;100.00;100996.28;4126613;28;20632;-73
2023/04/26 06:13:11;;;;;;;9.40;6.90;;;11.30;99.90;;;10.52;100.00;100996.00;4123593;28;20034;-73
2023/04/26 06:15:13;;;;;;;12.23;7.75;;;11.30;99.90;;;10.58;100.00;100990.13;4135752;28;20034;-73
2023/04/26 06:17:14;;;;;;;9.30;7.20;;;11.40;99.90;;;10.66;100.00;100994.66;4128165;28;20026;-72
2023/04/26 06:19:14;;;;;;;9.35;7.43;;;11.40;99.90;;;10.71;100.00;100990.59;4135287;28;20030;-72
2023/04/26 06:21:15;;;;;;;10.02;6.60;;;11.40;99.90;;;10.73;100.00;100988.63;4134782;28;20540;-72
2023/04/26 06:23:16;;;;;;;9.55;6.72;;;11.40;99.90;;;10.76;100.00;100975.13;4134306;28;20404;-73
2023/04/26 06:25:17;;;;;;;11.27;7.20;;;11.50;99.90;;;10.89;100.00;100988.78;4150868;28;20033;-73
2023/04/26 06:27:18;;;;;;;8.55;6.90;;;11.60;99.90;;;10.98;100.00;100981.75;4127952;28;20388;-72
2023/04/26 06:29:20;;;;;;;11.15;7.40;;;11.70;99.90;;;10.99;100.00;100968.38;4129012;28;20096;-72
2023/04/26 06:31:21;;;;;;;8.48;7.25;;;11.80;99.90;;;11.19;100.00;100986.69;4132154;28;20034;-72
2023/04/26 06:33:22;;;;;;;10.07;6.82;;;11.90;99.90;;;11.30;100.00;100987.28;4134609;28;20034;-72
2023/04/26 06:35:24;;;;;;;13.13;7.88;;;12.00;99.90;;;11.35;100.00;100986.81;4126597;28;20521;-73
2023/04/26 06:37:25;;;;;;;9.07;6.55;;;12.10;99.90;;;11.34;100.00;100987.78;4134663;28;20032;-73
2023/04/26 06:39:25;;;;;;;9.52;6.50;;;12.10;99.90;;;11.33;100.00;100980.84;4133504;28;20105;-73
2023/04/26 06:41:26;;;;;;;6.80;5.60;;;12.10;99.90;;;11.40;100.00;100980.09;4125962;28;20030;-73
2023/04/26 06:43:27;;;;;;;9.50;6.88;;;12.20;99.90;;;11.45;100.00;100985.72;4126998;28;20082;-73
2023/04/26 06:45:29;;;;;;;9.82;7.75;;;12.20;99.90;;;11.42;100.00;100978.09;4129284;28;20042;-73
2023/04/26 06:47:30;;;;;;;8.27;5.80;;;12.20;99.90;;;11.48;100.00;100979.28;4120952;28;20085;-74
2023/04/26 06:49:31;;;;;;;8.25;6.13;;;12.30;99.90;;;11.55;100.00;100985.63;4135425;28;20029;-73
2023/04/26 06:51:32;;;;;;;8.32;6.50;;;12.30;99.90;;;11.59;100.00;100990.41;4129040;28;20031;-72
2023/04/26 06:53:33;;;;;;;6.93;5.53;;;12.30;99.90;;;11.63;100.00;100988.31;4125243;28;20388;-73
2023/04/26 06:55:34;;;;;;;8.73;7.05;;;12.40;99.90;;;11.67;100.00;100994.94;4134044;28;20122;-73
2023/04/26 06:57:35;;;;;;;7.57;6.40;;;12.40;99.90;;;11.71;100.00;100990.22;4134445;28;20026;-74
2023/04/26 06:59:36;;;;;;;9.40;6.03;;;12.50;99.90;;;11.70;100.00;100989.38;4125058;28;20022;-73
2023/04/26 07:01:38;;;;;;;8.45;6.35;;;12.50;99.90;;;11.70;100.00;100992.03;4134093;28;20045;-74
2023/04/26 07:03:41;;;;;;;10.13;6.88;;;12.50;99.90;;;11.66;100.00;100999.41;4122716;28;20479;-74
2023/04/26 07:05:42;;;;;;;9.68;7.05;;;12.40;99.90;;;11.72;100.00;100992.69;4117959;28;20125;-74
2023/04/26 07:07:43;;;;;;;9.27;6.85;;;12.50;99.90;;;11.79;100.00;100988.44;4123720;28;20070;-74
2023/04/26 07:09:43;;;;;;;8.82;6.07;;;12.50;99.90;;;11.84;100.00;100990.59;4126319;28;20041;-73
2023/04/26 07:11:47;;;;;;;7.68;6.43;;;12.50;99.90;;;11.93;100.00;100989.63;4135093;28;20030;-74
2023/04/26 07:13:48;;;;;;;6.95;5.72;;;12.60;99.90;;;11.96;100.00;100984.88;4120838;28;20054;-74
2023/04/26 07:15:49;;;;;;;7.65;6.05;;;12.70;99.90;;;12.06;100.00;100990.88;4119922;28;20034;-74
2023/04/26 07:17:50;;;;;;;8.98;6.47;;;12.80;99.90;;;12.12;100.00;100989.41;4126984;28;20592;-74
2023/04/26 07:19:51;;;;;;;9.02;6.50;;;12.80;99.90;;;12.18;100.00;100984.28;4131365;28;20026;-74
2023/04/26 07:21:52;;;;;;;8.23;7.00;;;12.90;99.90;;;12.21;100.00;100985.78;4134224;28;20394;-74
2023/04/26 07:23:57;;;;;;;8.48;5.40;;;12.90;99.90;;;12.28;100.00;100978.03;4119686;28;20067;-74
2023/04/26 07:25:58;;;;;;;7.80;6.13;;;13.00;99.90;;;12.45;100.00;100992.97;4111175;28;20162;-74
2023/04/26 07:27:58;;;;;;;8.05;5.93;;;13.20;99.90;;;12.60;100.00;100984.22;4131448;28;20027;-74
2023/04/26 07:29:59;;;;;;;7.85;5.95;;;13.30;99.90;;;12.73;100.00;100989.03;4134387;28;20038;-74
2023/04/26 07:32:00;;;;;;;8.75;6.05;;;13.40;99.90;;;12.86;100.00;100994.69;4126074;28;20027;-74
2023/04/26 07:34:01;;;;;;;9.32;6.80;;;13.50;99.90;;;12.85;100.00;100989.53;4118573;28;20027;-74
2023/04/26 07:36:02;;;;;;;12.00;8.10;;;13.60;99.90;;;12.97;100.00;100994.34;4149801;28;20113;-74
2023/04/26 07:38:03;;;;;;;9.45;7.45;;;13.70;99.90;;;13.04;100.00;100992.69;4138683;28;20054;-74
2023/04/26 07:40:07;;;;;;;8.32;7.13;;;13.70;99.90;;;13.11;100.00;100996.34;4139063;28;20077;-74
2023/04/26 07:42:07;;;;;;;8.68;7.15;;;13.80;99.90;;;13.08;100.00;101003.84;4133906;28;20026;-74
2023/04/26 07:44:10;;;;;;;11.57;7.60;;;13.80;99.90;;;13.09;100.00;101005.47;4138894;28;20019;-74
2023/04/26 07:46:11;;;;;;;12.00;7.47;;;13.80;99.90;;;13.14;100.00;101013.75;4137806;28;20121;-74
2023/04/26 07:48:12;;;;;;;8.05;6.68;;;13.80;99.90;;;13.17;100.00;101003.63;4127007;28;20057;-74
2023/04/26 07:50:13;;;;;;;9.75;7.07;;;13.80;99.90;;;13.20;100.00;101003.31;4137670;28;20133;-74
2023/04/26 07:52:14;;;;;;;9.65;6.53;;;13.90;99.90;;;13.16;100.00;101006.47;4132885;28;20038;-73
2023/04/26 07:54:15;;;;;;;8.57;6.60;;;13.90;99.90;;;13.19;100.00;101008.78;4153392;28;20022;-73
2023/04/26 07:56:15;;;;;;;9.63;6.82;;;13.80;99.90;;;13.20;100.00;101011.25;4137738;28;20522;-73
2023/04/26 07:58:18;;;;;;;10.23;7.25;;;13.80;99.90;;;13.18;100.00;101004.47;4131656;28;20050;-74
2023/04/26 08:00:21;;;;;;;10.85;7.45;;;13.90;99.90;;;13.27;100.00;101004.31;4128598;28;20034;-74
2023/04/26 08:02:22;;;;;;;7.83;6.60;;;13.90;99.90;;;13.42;100.00;101003.63;4134883;28;20030;-73
2023/04/26 08:04:32;;;;;;;11.88;8.45;;;14.00;99.90;;;13.53;100.00;101003.28;4134468;28;20077;-73
2023/04/26 08:06:33;;;;;;;10.35;6.53;;;14.10;99.90;;;13.76;100.00;101007.72;4134639;28;20026;-74
2023/04/26 08:08:41;;;;;;;11.88;8.25;;;14.40;99.90;;;13.84;100.00;100996.25;4135843;28;20681;-74
2023/04/26 08:10:42;;;;;;;10.60;7.85;;;14.50;99.90;;;14.00;100.00;101000.66;4108730;28;20034;-74
2023/04/26 08:12:43;;;;;;;8.63;7.50;;;14.60;99.90;;;14.17;100.00;101013.69;4137218;28;20049;-73
2023/04/26 08:14:45;;;;;;;13.20;8.38;;;14.80;99.90;;;14.37;100.00;101003.50;4137011;28;20030;-73
2023/04/26 08:16:46;;;;;;;11.57;7.57;;;15.00;99.90;;;14.33;100.00;100995.06;4135156;28;20086;-74
2023/04/26 08:18:46;;;;;;;10.48;7.78;;;15.10;99.90;;;14.46;100.00;100999.78;4135538;28;20022;-73
2023/04/26 08:20:47;;;;;;;11.00;8.70;;;15.20;99.90;;;14.53;100.00;101002.59;4137232;28;20034;-73